sensor_id;sensor_type;location;lat;lon;timestamp;P1;durP1;ratioP1;P2;durP2;ratioP2
72920;SDS011;61064;51.654;5.476;2023-02-10T00:01:19;43.17;;;18.75;;
72920;SDS011;61064;51.654;5.476;2023-02-10T00:03:52;50.92;;;19.42;;
72920;SDS011;61064;51.654;5.476;2023-02-10T00:06:18;44.47;;;18.08;;
72920;SDS011;61064;51.654;5.476;2023-02-10T00:08:46;44.23;;;18.33;;
72920;SDS011;61064;51.654;5.476;2023-02-10T00:11:12;38.03;;;17.30;;
72920;SDS011;61064;51.654;5.476;2023-02-10T00:13:38;42.80;;;18.27;;
72920;SDS011;61064;51.654;5.476;2023-02-10T00:16:05;43.83;;;18.33;;
72920;SDS011;61064;51.654;5.476;2023-02-10T00:18:33;45.13;;;18.98;;
72920;SDS011;61064;51.654;5.476;2023-02-10T00:23:54;45.42;;;19.13;;
72920;SDS011;61064;51.654;5.476;2023-02-10T00:26:19;43.77;;;19.30;;
72920;SDS011;61064;51.654;5.476;2023-02-10T00:28:46;45.95;;;19.60;;
72920;SDS011;61064;51.654;5.476;2023-02-10T00:31:13;47.90;;;20.13;;
72920;SDS011;61064;51.654;5.476;2023-02-10T00:33:40;50.65;;;20.75;;
72920;SDS011;61064;51.654;5.476;2023-02-10T00:36:07;54.65;;;20.83;;
72920;SDS011;61064;51.654;5.476;2023-02-10T00:38:33;50.53;;;21.00;;
72920;SDS011;61064;51.654;5.476;2023-02-10T00:41:05;49.33;;;20.45;;
72920;SDS011;61064;51.654;5.476;2023-02-10T00:43:32;52.47;;;20.48;;
72920;SDS011;61064;51.654;5.476;2023-02-10T00:45:57;53.40;;;21.47;;
72920;SDS011;61064;51.654;5.476;2023-02-10T00:48:23;44.40;;;19.92;;
72920;SDS011;61064;51.654;5.476;2023-02-10T00:50:49;51.60;;;20.43;;
72920;SDS011;61064;51.654;5.476;2023-02-10T00:53:14;48.13;;;21.17;;
72920;SDS011;61064;51.654;5.476;2023-02-10T00:55:40;46.22;;;19.63;;
72920;SDS011;61064;51.654;5.476;2023-02-10T00:58:08;49.70;;;19.60;;
72920;SDS011;61064;51.654;5.476;2023-02-10T01:00:36;48.50;;;19.65;;
72920;SDS011;61064;51.654;5.476;2023-02-10T01:03:01;47.47;;;20.48;;
72920;SDS011;61064;51.654;5.476;2023-02-10T01:05:26;51.77;;;20.13;;
72920;SDS011;61064;51.654;5.476;2023-02-10T01:07:52;47.10;;;20.37;;
72920;SDS011;61064;51.654;5.476;2023-02-10T01:10:18;51.63;;;19.77;;
72920;SDS011;61064;51.654;5.476;2023-02-10T01:12:44;51.72;;;21.17;;
72920;SDS011;61064;51.654;5.476;2023-02-10T01:15:09;46.23;;;20.13;;
72920;SDS011;61064;51.654;5.476;2023-02-10T01:17:35;49.88;;;20.45;;
72920;SDS011;61064;51.654;5.476;2023-02-10T01:20:00;53.13;;;21.43;;
72920;SDS011;61064;51.654;5.476;2023-02-10T01:22:26;51.67;;;19.47;;
72920;SDS011;61064;51.654;5.476;2023-02-10T01:24:51;47.08;;;19.75;;
72920;SDS011;61064;51.654;5.476;2023-02-10T01:27:19;45.30;;;19.23;;
72920;SDS011;61064;51.654;5.476;2023-02-10T01:29:46;42.75;;;18.23;;
72920;SDS011;61064;51.654;5.476;2023-02-10T01:32:11;37.40;;;18.33;;
72920;SDS011;61064;51.654;5.476;2023-02-10T01:34:37;44.70;;;18.73;;
72920;SDS011;61064;51.654;5.476;2023-02-10T01:37:02;44.10;;;17.77;;
72920;SDS011;61064;51.654;5.476;2023-02-10T01:39:27;47.80;;;19.17;;
72920;SDS011;61064;51.654;5.476;2023-02-10T01:41:53;45.15;;;19.65;;
72920;SDS011;61064;51.654;5.476;2023-02-10T01:46:45;51.57;;;21.27;;
72920;SDS011;61064;51.654;5.476;2023-02-10T01:49:13;46.13;;;19.95;;
72920;SDS011;61064;51.654;5.476;2023-02-10T01:51:43;50.30;;;20.73;;
72920;SDS011;61064;51.654;5.476;2023-02-10T01:54:21;46.92;;;19.85;;
72920;SDS011;61064;51.654;5.476;2023-02-10T01:56:51;50.80;;;21.33;;
72920;SDS011;61064;51.654;5.476;2023-02-10T01:59:17;51.63;;;21.00;;
72920;SDS011;61064;51.654;5.476;2023-02-10T02:01:46;48.83;;;20.23;;
72920;SDS011;61064;51.654;5.476;2023-02-10T02:04:12;46.70;;;19.90;;
72920;SDS011;61064;51.654;5.476;2023-02-10T02:06:37;45.50;;;19.70;;
72920;SDS011;61064;51.654;5.476;2023-02-10T02:09:03;47.35;;;19.67;;
72920;SDS011;61064;51.654;5.476;2023-02-10T02:11:37;49.28;;;20.15;;
72920;SDS011;61064;51.654;5.476;2023-02-10T02:14:25;53.45;;;22.15;;
72920;SDS011;61064;51.654;5.476;2023-02-10T02:22:51;48.97;;;20.77;;
72920;SDS011;61064;51.654;5.476;2023-02-10T02:33:31;51.80;;;19.85;;
72920;SDS011;61064;51.654;5.476;2023-02-10T02:36:11;48.33;;;20.45;;
72920;SDS011;61064;51.654;5.476;2023-02-10T02:38:41;54.55;;;21.13;;
72920;SDS011;61064;51.654;5.476;2023-02-10T02:41:07;48.25;;;21.27;;
72920;SDS011;61064;51.654;5.476;2023-02-10T02:43:34;51.63;;;20.73;;
72920;SDS011;61064;51.654;5.476;2023-02-10T02:46:21;51.85;;;21.10;;
72920;SDS011;61064;51.654;5.476;2023-02-10T02:51:43;50.75;;;19.88;;
72920;SDS011;61064;51.654;5.476;2023-02-10T02:54:25;54.72;;;21.38;;
72920;SDS011;61064;51.654;5.476;2023-02-10T02:59:48;42.58;;;19.60;;
72920;SDS011;61064;51.654;5.476;2023-02-10T03:02:18;48.75;;;19.27;;
72920;SDS011;61064;51.654;5.476;2023-02-10T03:04:45;55.28;;;20.42;;
72920;SDS011;61064;51.654;5.476;2023-02-10T03:07:11;53.83;;;22.15;;
72920;SDS011;61064;51.654;5.476;2023-02-10T03:09:37;49.10;;;19.60;;
72920;SDS011;61064;51.654;5.476;2023-02-10T03:12:03;49.28;;;20.40;;
72920;SDS011;61064;51.654;5.476;2023-02-10T03:14:29;52.40;;;20.80;;
72920;SDS011;61064;51.654;5.476;2023-02-10T03:16:54;45.03;;;20.05;;
72920;SDS011;61064;51.654;5.476;2023-02-10T03:19:20;47.80;;;20.07;;
72920;SDS011;61064;51.654;5.476;2023-02-10T03:21:45;49.00;;;21.20;;
72920;SDS011;61064;51.654;5.476;2023-02-10T03:24:12;48.42;;;20.65;;
72920;SDS011;61064;51.654;5.476;2023-02-10T03:26:38;51.80;;;20.80;;
72920;SDS011;61064;51.654;5.476;2023-02-10T03:29:04;45.53;;;19.87;;
72920;SDS011;61064;51.654;5.476;2023-02-10T03:31:30;51.08;;;21.08;;
72920;SDS011;61064;51.654;5.476;2023-02-10T03:33:56;50.57;;;21.50;;
72920;SDS011;61064;51.654;5.476;2023-02-10T03:36:21;51.90;;;20.88;;
72920;SDS011;61064;51.654;5.476;2023-02-10T03:38:47;46.53;;;20.63;;
72920;SDS011;61064;51.654;5.476;2023-02-10T03:41:13;44.57;;;21.03;;
72920;SDS011;61064;51.654;5.476;2023-02-10T03:43:39;50.38;;;20.85;;
72920;SDS011;61064;51.654;5.476;2023-02-10T03:46:06;47.95;;;20.27;;
72920;SDS011;61064;51.654;5.476;2023-02-10T03:48:34;51.55;;;21.35;;
72920;SDS011;61064;51.654;5.476;2023-02-10T03:51:00;53.70;;;21.20;;
72920;SDS011;61064;51.654;5.476;2023-02-10T03:53:28;57.25;;;21.23;;
72920;SDS011;61064;51.654;5.476;2023-02-10T03:55:54;58.35;;;23.05;;
72920;SDS011;61064;51.654;5.476;2023-02-10T03:58:19;56.50;;;22.40;;
72920;SDS011;61064;51.654;5.476;2023-02-10T04:00:45;61.87;;;23.13;;
72920;SDS011;61064;51.654;5.476;2023-02-10T04:03:10;52.57;;;22.17;;
72920;SDS011;61064;51.654;5.476;2023-02-10T04:05:35;55.40;;;22.53;;
72920;SDS011;61064;51.654;5.476;2023-02-10T04:08:01;52.75;;;21.40;;
72920;SDS011;61064;51.654;5.476;2023-02-10T04:10:27;48.53;;;22.67;;
72920;SDS011;61064;51.654;5.476;2023-02-10T04:12:52;53.30;;;21.60;;
72920;SDS011;61064;51.654;5.476;2023-02-10T04:15:17;58.38;;;21.92;;
72920;SDS011;61064;51.654;5.476;2023-02-10T04:17:43;50.87;;;21.50;;
72920;SDS011;61064;51.654;5.476;2023-02-10T04:20:09;49.73;;;22.00;;
72920;SDS011;61064;51.654;5.476;2023-02-10T04:22:35;50.63;;;21.95;;
72920;SDS011;61064;51.654;5.476;2023-02-10T04:25:00;56.20;;;21.77;;
72920;SDS011;61064;51.654;5.476;2023-02-10T04:27:26;52.67;;;22.80;;
72920;SDS011;61064;51.654;5.476;2023-02-10T04:29:51;51.33;;;22.00;;
72920;SDS011;61064;51.654;5.476;2023-02-10T04:32:16;45.87;;;21.67;;
72920;SDS011;61064;51.654;5.476;2023-02-10T04:34:42;49.53;;;21.33;;
72920;SDS011;61064;51.654;5.476;2023-02-10T04:37:07;50.87;;;21.83;;
72920;SDS011;61064;51.654;5.476;2023-02-10T04:39:33;52.63;;;21.48;;
72920;SDS011;61064;51.654;5.476;2023-02-10T04:41:58;46.77;;;20.33;;
72920;SDS011;61064;51.654;5.476;2023-02-10T04:44:24;50.17;;;21.27;;
72920;SDS011;61064;51.654;5.476;2023-02-10T04:46:49;50.77;;;21.93;;
72920;SDS011;61064;51.654;5.476;2023-02-10T04:49:16;61.75;;;22.33;;
72920;SDS011;61064;51.654;5.476;2023-02-10T04:51:41;55.53;;;23.80;;
72920;SDS011;61064;51.654;5.476;2023-02-10T04:54:07;56.72;;;22.65;;
72920;SDS011;61064;51.654;5.476;2023-02-10T04:56:33;52.53;;;22.23;;
72920;SDS011;61064;51.654;5.476;2023-02-10T04:58:58;56.30;;;22.83;;
72920;SDS011;61064;51.654;5.476;2023-02-10T05:01:24;55.80;;;22.20;;
72920;SDS011;61064;51.654;5.476;2023-02-10T05:03:49;53.97;;;22.70;;
72920;SDS011;61064;51.654;5.476;2023-02-10T05:06:15;53.37;;;22.53;;
72920;SDS011;61064;51.654;5.476;2023-02-10T05:08:40;49.50;;;22.20;;
72920;SDS011;61064;51.654;5.476;2023-02-10T05:11:07;54.87;;;22.70;;
72920;SDS011;61064;51.654;5.476;2023-02-10T05:13:34;58.75;;;23.25;;
72920;SDS011;61064;51.654;5.476;2023-02-10T05:15:59;52.10;;;22.20;;
72920;SDS011;61064;51.654;5.476;2023-02-10T05:18:27;54.22;;;22.17;;
72920;SDS011;61064;51.654;5.476;2023-02-10T05:20:54;54.58;;;23.33;;
72920;SDS011;61064;51.654;5.476;2023-02-10T05:23:19;58.80;;;23.40;;
72920;SDS011;61064;51.654;5.476;2023-02-10T05:25:45;62.30;;;22.07;;
72920;SDS011;61064;51.654;5.476;2023-02-10T05:28:11;56.60;;;23.55;;
72920;SDS011;61064;51.654;5.476;2023-02-10T05:30:36;59.07;;;23.40;;
72920;SDS011;61064;51.654;5.476;2023-02-10T05:33:02;66.37;;;23.87;;
72920;SDS011;61064;51.654;5.476;2023-02-10T05:35:27;57.60;;;23.10;;
72920;SDS011;61064;51.654;5.476;2023-02-10T05:37:53;72.40;;;24.80;;
72920;SDS011;61064;51.654;5.476;2023-02-10T05:40:18;86.47;;;24.77;;
72920;SDS011;61064;51.654;5.476;2023-02-10T05:42:43;153.70;;;25.97;;
72920;SDS011;61064;51.654;5.476;2023-02-10T05:45:09;150.47;;;25.50;;
72920;SDS011;61064;51.654;5.476;2023-02-10T05:47:34;119.83;;;24.80;;
72920;SDS011;61064;51.654;5.476;2023-02-10T05:50:00;97.83;;;23.93;;
72920;SDS011;61064;51.654;5.476;2023-02-10T05:52:25;133.20;;;25.98;;
72920;SDS011;61064;51.654;5.476;2023-02-10T05:54:50;107.33;;;23.70;;
72920;SDS011;61064;51.654;5.476;2023-02-10T05:57:16;135.37;;;24.70;;
72920;SDS011;61064;51.654;5.476;2023-02-10T05:59:41;145.27;;;24.63;;
72920;SDS011;61064;51.654;5.476;2023-02-10T06:02:07;143.30;;;24.13;;
72920;SDS011;61064;51.654;5.476;2023-02-10T06:04:32;144.63;;;24.42;;
72920;SDS011;61064;51.654;5.476;2023-02-10T06:06:58;177.40;;;23.00;;
72920;SDS011;61064;51.654;5.476;2023-02-10T06:09:24;162.52;;;23.65;;
72920;SDS011;61064;51.654;5.476;2023-02-10T06:11:51;101.03;;;22.25;;
72920;SDS011;61064;51.654;5.476;2023-02-10T06:14:17;166.27;;;24.23;;
72920;SDS011;61064;51.654;5.476;2023-02-10T06:16:42;182.90;;;27.05;;
72920;SDS011;61064;51.654;5.476;2023-02-10T06:19:08;152.93;;;22.87;;
72920;SDS011;61064;51.654;5.476;2023-02-10T06:21:33;202.20;;;25.83;;
72920;SDS011;61064;51.654;5.476;2023-02-10T06:23:59;230.43;;;26.20;;
72920;SDS011;61064;51.654;5.476;2023-02-10T06:26:24;110.17;;;22.27;;
72920;SDS011;61064;51.654;5.476;2023-02-10T06:28:51;182.20;;;25.83;;
72920;SDS011;61064;51.654;5.476;2023-02-10T06:31:17;153.30;;;24.63;;
72920;SDS011;61064;51.654;5.476;2023-02-10T06:33:42;177.00;;;24.37;;
72920;SDS011;61064;51.654;5.476;2023-02-10T06:36:08;169.30;;;25.07;;
72920;SDS011;61064;51.654;5.476;2023-02-10T06:38:35;161.75;;;23.58;;
72920;SDS011;61064;51.654;5.476;2023-02-10T06:41:02;181.45;;;24.50;;
72920;SDS011;61064;51.654;5.476;2023-02-10T06:43:28;219.82;;;25.80;;
72920;SDS011;61064;51.654;5.476;2023-02-10T06:45:54;166.00;;;25.33;;
72920;SDS011;61064;51.654;5.476;2023-02-10T06:48:19;202.07;;;24.50;;
72920;SDS011;61064;51.654;5.476;2023-02-10T06:50:45;201.80;;;26.60;;
72920;SDS011;61064;51.654;5.476;2023-02-10T06:53:10;321.60;;;27.73;;
72920;SDS011;61064;51.654;5.476;2023-02-10T06:55:36;178.37;;;24.83;;
72920;SDS011;61064;51.654;5.476;2023-02-10T06:58:01;276.50;;;27.70;;
72920;SDS011;61064;51.654;5.476;2023-02-10T07:00:28;236.20;;;25.55;;
72920;SDS011;61064;51.654;5.476;2023-02-10T07:02:53;212.27;;;24.73;;
72920;SDS011;61064;51.654;5.476;2023-02-10T07:05:19;228.95;;;27.15;;
72920;SDS011;61064;51.654;5.476;2023-02-10T07:07:45;257.50;;;26.63;;
72920;SDS011;61064;51.654;5.476;2023-02-10T07:10:11;268.10;;;27.70;;
72920;SDS011;61064;51.654;5.476;2023-02-10T07:12:36;179.33;;;25.00;;
72920;SDS011;61064;51.654;5.476;2023-02-10T07:15:02;239.93;;;27.57;;
72920;SDS011;61064;51.654;5.476;2023-02-10T07:17:28;199.00;;;25.40;;
72920;SDS011;61064;51.654;5.476;2023-02-10T07:19:54;224.43;;;27.53;;
72920;SDS011;61064;51.654;5.476;2023-02-10T07:22:19;227.55;;;27.27;;
72920;SDS011;61064;51.654;5.476;2023-02-10T07:24:45;232.93;;;25.00;;
72920;SDS011;61064;51.654;5.476;2023-02-10T07:27:11;209.00;;;26.88;;
72920;SDS011;61064;51.654;5.476;2023-02-10T07:29:36;205.30;;;25.40;;
72920;SDS011;61064;51.654;5.476;2023-02-10T07:32:02;189.32;;;25.90;;
72920;SDS011;61064;51.654;5.476;2023-02-10T07:34:28;186.07;;;25.17;;
72920;SDS011;61064;51.654;5.476;2023-02-10T07:36:56;161.35;;;26.88;;
72920;SDS011;61064;51.654;5.476;2023-02-10T07:39:22;186.45;;;24.20;;
72920;SDS011;61064;51.654;5.476;2023-02-10T07:41:48;189.63;;;25.00;;
72920;SDS011;61064;51.654;5.476;2023-02-10T07:44:15;207.27;;;25.05;;
72920;SDS011;61064;51.654;5.476;2023-02-10T07:46:40;194.18;;;23.75;;
72920;SDS011;61064;51.654;5.476;2023-02-10T07:49:06;183.83;;;24.33;;
72920;SDS011;61064;51.654;5.476;2023-02-10T07:51:32;175.35;;;23.15;;
72920;SDS011;61064;51.654;5.476;2023-02-10T07:53:57;181.03;;;24.03;;
72920;SDS011;61064;51.654;5.476;2023-02-10T07:56:23;224.07;;;25.80;;
72920;SDS011;61064;51.654;5.476;2023-02-10T07:58:48;156.90;;;25.93;;
72920;SDS011;61064;51.654;5.476;2023-02-10T08:01:13;179.95;;;24.77;;
72920;SDS011;61064;51.654;5.476;2023-02-10T08:03:39;164.90;;;23.87;;
72920;SDS011;61064;51.654;5.476;2023-02-10T08:06:06;174.47;;;24.60;;
72920;SDS011;61064;51.654;5.476;2023-02-10T08:08:31;158.98;;;23.85;;
72920;SDS011;61064;51.654;5.476;2023-02-10T08:10:57;162.55;;;24.00;;
72920;SDS011;61064;51.654;5.476;2023-02-10T08:13:22;191.07;;;24.83;;
72920;SDS011;61064;51.654;5.476;2023-02-10T08:15:49;173.38;;;23.77;;
72920;SDS011;61064;51.654;5.476;2023-02-10T08:18:15;171.02;;;24.40;;
72920;SDS011;61064;51.654;5.476;2023-02-10T08:20:41;158.70;;;23.13;;
72920;SDS011;61064;51.654;5.476;2023-02-10T08:23:07;134.67;;;21.93;;
72920;SDS011;61064;51.654;5.476;2023-02-10T08:25:41;136.07;;;22.73;;
72920;SDS011;61064;51.654;5.476;2023-02-10T08:28:07;134.57;;;23.50;;
72920;SDS011;61064;51.654;5.476;2023-02-10T08:30:34;129.60;;;23.17;;
72920;SDS011;61064;51.654;5.476;2023-02-10T08:33:00;128.52;;;22.45;;
72920;SDS011;61064;51.654;5.476;2023-02-10T08:35:25;129.30;;;24.20;;
72920;SDS011;61064;51.654;5.476;2023-02-10T08:37:51;118.13;;;22.25;;
72920;SDS011;61064;51.654;5.476;2023-02-10T08:40:16;134.13;;;24.07;;
72920;SDS011;61064;51.654;5.476;2023-02-10T08:42:42;132.63;;;23.70;;
72920;SDS011;61064;51.654;5.476;2023-02-10T08:45:08;122.57;;;23.70;;
72920;SDS011;61064;51.654;5.476;2023-02-10T08:47:34;118.73;;;22.60;;
72920;SDS011;61064;51.654;5.476;2023-02-10T08:49:59;121.53;;;22.00;;
72920;SDS011;61064;51.654;5.476;2023-02-10T08:52:25;129.80;;;22.80;;
72920;SDS011;61064;51.654;5.476;2023-02-10T08:54:50;121.07;;;22.17;;
72920;SDS011;61064;51.654;5.476;2023-02-10T08:57:16;119.97;;;23.20;;
72920;SDS011;61064;51.654;5.476;2023-02-10T08:59:42;117.60;;;22.67;;
72920;SDS011;61064;51.654;5.476;2023-02-10T09:02:09;113.47;;;22.77;;
72920;SDS011;61064;51.654;5.476;2023-02-10T09:04:38;113.97;;;23.30;;
72920;SDS011;61064;51.654;5.476;2023-02-10T09:07:04;120.05;;;24.05;;
72920;SDS011;61064;51.654;5.476;2023-02-10T09:09:29;109.23;;;23.60;;
72920;SDS011;61064;51.654;5.476;2023-02-10T09:11:55;116.80;;;23.70;;
72920;SDS011;61064;51.654;5.476;2023-02-10T09:14:20;102.70;;;22.67;;
72920;SDS011;61064;51.654;5.476;2023-02-10T09:16:46;99.23;;;22.93;;
72920;SDS011;61064;51.654;5.476;2023-02-10T09:19:12;103.22;;;23.05;;
72920;SDS011;61064;51.654;5.476;2023-02-10T09:21:38;90.70;;;22.03;;
72920;SDS011;61064;51.654;5.476;2023-02-10T09:24:04;98.65;;;22.38;;
72920;SDS011;61064;51.654;5.476;2023-02-10T09:26:29;92.00;;;22.17;;
72920;SDS011;61064;51.654;5.476;2023-02-10T09:28:55;112.72;;;24.33;;
72920;SDS011;61064;51.654;5.476;2023-02-10T09:31:20;89.97;;;22.73;;
72920;SDS011;61064;51.654;5.476;2023-02-10T09:33:47;91.05;;;22.27;;
72920;SDS011;61064;51.654;5.476;2023-02-10T09:36:14;89.10;;;22.03;;
72920;SDS011;61064;51.654;5.476;2023-02-10T09:38:41;91.88;;;21.05;;
72920;SDS011;61064;51.654;5.476;2023-02-10T09:55:03;85.57;;;21.33;;
72920;SDS011;61064;51.654;5.476;2023-02-10T09:57:39;86.53;;;21.90;;
72920;SDS011;61064;51.654;5.476;2023-02-10T10:00:16;79.45;;;21.73;;
72920;SDS011;61064;51.654;5.476;2023-02-10T10:02:55;83.25;;;21.88;;
72920;SDS011;61064;51.654;5.476;2023-02-10T10:08:17;73.00;;;20.53;;
72920;SDS011;61064;51.654;5.476;2023-02-10T10:11:19;71.47;;;20.27;;
72920;SDS011;61064;51.654;5.476;2023-02-10T10:13:49;76.47;;;20.08;;
72920;SDS011;61064;51.654;5.476;2023-02-10T10:22:27;78.95;;;19.80;;
72920;SDS011;61064;51.654;5.476;2023-02-10T10:25:13;66.68;;;19.42;;
72920;SDS011;61064;51.654;5.476;2023-02-10T10:27:55;65.20;;;18.70;;
72920;SDS011;61064;51.654;5.476;2023-02-10T10:30:40;63.75;;;20.02;;
72920;SDS011;61064;51.654;5.476;2023-02-10T10:33:21;72.23;;;19.57;;
72920;SDS011;61064;51.654;5.476;2023-02-10T10:35:47;66.70;;;18.48;;
72920;SDS011;61064;51.654;5.476;2023-02-10T10:38:32;58.30;;;17.63;;
72920;SDS011;61064;51.654;5.476;2023-02-10T10:41:03;61.85;;;18.75;;
72920;SDS011;61064;51.654;5.476;2023-02-10T10:43:36;67.68;;;17.67;;
72920;SDS011;61064;51.654;5.476;2023-02-10T10:46:12;56.60;;;18.30;;
72920;SDS011;61064;51.654;5.476;2023-02-10T10:48:57;60.97;;;17.98;;
72920;SDS011;61064;51.654;5.476;2023-02-10T10:51:22;59.63;;;17.10;;
72920;SDS011;61064;51.654;5.476;2023-02-10T10:53:52;56.88;;;17.73;;
72920;SDS011;61064;51.654;5.476;2023-02-10T10:56:22;54.58;;;16.85;;
72920;SDS011;61064;51.654;5.476;2023-02-10T10:58:49;51.63;;;16.57;;
72920;SDS011;61064;51.654;5.476;2023-02-10T11:01:15;55.28;;;16.98;;
72920;SDS011;61064;51.654;5.476;2023-02-10T11:04:29;55.55;;;17.33;;
72920;SDS011;61064;51.654;5.476;2023-02-10T11:06:50;52.95;;;16.60;;
72920;SDS011;61064;51.654;5.476;2023-02-10T11:09:22;56.10;;;16.20;;
72920;SDS011;61064;51.654;5.476;2023-02-10T11:11:52;52.17;;;16.17;;
72920;SDS011;61064;51.654;5.476;2023-02-10T11:14:25;48.88;;;15.35;;
72920;SDS011;61064;51.654;5.476;2023-02-10T11:16:54;50.03;;;16.27;;
72920;SDS011;61064;51.654;5.476;2023-02-10T11:19:32;47.50;;;16.38;;
72920;SDS011;61064;51.654;5.476;2023-02-10T11:21:59;46.15;;;15.52;;
72920;SDS011;61064;51.654;5.476;2023-02-10T11:24:29;46.17;;;15.53;;
72920;SDS011;61064;51.654;5.476;2023-02-10T11:27:11;46.00;;;16.05;;
72920;SDS011;61064;51.654;5.476;2023-02-10T11:29:46;47.80;;;16.10;;
72920;SDS011;61064;51.654;5.476;2023-02-10T11:32:16;48.72;;;16.42;;
72920;SDS011;61064;51.654;5.476;2023-02-10T11:34:54;50.42;;;15.68;;
72920;SDS011;61064;51.654;5.476;2023-02-10T11:39:58;43.67;;;15.70;;
72920;SDS011;61064;51.654;5.476;2023-02-10T11:42:31;44.50;;;15.20;;
72920;SDS011;61064;51.654;5.476;2023-02-10T11:45:00;48.47;;;16.85;;
72920;SDS011;61064;51.654;5.476;2023-02-10T11:47:30;46.03;;;16.20;;
72920;SDS011;61064;51.654;5.476;2023-02-10T11:49:57;45.67;;;16.57;;
72920;SDS011;61064;51.654;5.476;2023-02-10T11:52:23;43.35;;;15.52;;
72920;SDS011;61064;51.654;5.476;2023-02-10T11:54:52;41.05;;;14.93;;
72920;SDS011;61064;51.654;5.476;2023-02-10T12:00:37;42.57;;;15.03;;
72920;SDS011;61064;51.654;5.476;2023-02-10T12:22:34;56.15;;;19.15;;
72920;SDS011;61064;51.654;5.476;2023-02-10T12:25:21;50.30;;;19.20;;
72920;SDS011;61064;51.654;5.476;2023-02-10T12:28:06;49.80;;;18.00;;
72920;SDS011;61064;51.654;5.476;2023-02-10T12:30:51;50.45;;;20.25;;
72920;SDS011;61064;51.654;5.476;2023-02-10T12:33:31;49.80;;;19.45;;
72920;SDS011;61064;51.654;5.476;2023-02-10T12:36:24;48.63;;;18.27;;
72920;SDS011;61064;51.654;5.476;2023-02-10T12:39:24;51.83;;;19.83;;
72920;SDS011;61064;51.654;5.476;2023-02-10T12:47:33;56.15;;;20.70;;
72920;SDS011;61064;51.654;5.476;2023-02-10T12:55:37;56.87;;;22.07;;
72920;SDS011;61064;51.654;5.476;2023-02-10T12:58:34;57.78;;;21.98;;
72920;SDS011;61064;51.654;5.476;2023-02-10T13:04:14;52.38;;;21.63;;
72920;SDS011;61064;51.654;5.476;2023-02-10T13:06:49;62.17;;;23.98;;
72920;SDS011;61064;51.654;5.476;2023-02-10T13:09:30;54.73;;;22.80;;
72920;SDS011;61064;51.654;5.476;2023-02-10T13:12:11;55.03;;;22.45;;
72920;SDS011;61064;51.654;5.476;2023-02-10T13:14:43;57.38;;;24.23;;
72920;SDS011;61064;51.654;5.476;2023-02-10T13:17:11;54.28;;;22.85;;
72920;SDS011;61064;51.654;5.476;2023-02-10T13:25:17;58.25;;;22.80;;
72920;SDS011;61064;51.654;5.476;2023-02-10T13:35:39;51.08;;;23.67;;
72920;SDS011;61064;51.654;5.476;2023-02-10T13:38:07;52.22;;;24.25;;
72920;SDS011;61064;51.654;5.476;2023-02-10T13:45:52;52.47;;;24.08;;
72920;SDS011;61064;51.654;5.476;2023-02-10T13:48:29;48.70;;;22.33;;
72920;SDS011;61064;51.654;5.476;2023-02-10T13:50:58;48.67;;;22.38;;
72920;SDS011;61064;51.654;5.476;2023-02-10T13:53:37;48.23;;;23.17;;
72920;SDS011;61064;51.654;5.476;2023-02-10T13:56:29;49.92;;;22.42;;
72920;SDS011;61064;51.654;5.476;2023-02-10T13:58:56;44.90;;;22.33;;
72920;SDS011;61064;51.654;5.476;2023-02-10T14:02:01;42.63;;;21.00;;
72920;SDS011;61064;51.654;5.476;2023-02-10T14:04:41;42.67;;;21.30;;
72920;SDS011;61064;51.654;5.476;2023-02-10T14:09:49;46.60;;;21.88;;
72920;SDS011;61064;51.654;5.476;2023-02-10T14:12:30;45.40;;;22.42;;
72920;SDS011;61064;51.654;5.476;2023-02-10T14:14:56;46.50;;;21.27;;
72920;SDS011;61064;51.654;5.476;2023-02-10T14:18:01;37.17;;;17.50;;
72920;SDS011;61064;51.654;5.476;2023-02-10T14:20:36;37.60;;;17.92;;
72920;SDS011;61064;51.654;5.476;2023-02-10T14:23:04;36.80;;;15.95;;
72920;SDS011;61064;51.654;5.476;2023-02-10T14:25:40;31.83;;;14.65;;
72920;SDS011;61064;51.654;5.476;2023-02-10T14:28:15;32.97;;;15.93;;
72920;SDS011;61064;51.654;5.476;2023-02-10T14:30:45;35.10;;;16.57;;
72920;SDS011;61064;51.654;5.476;2023-02-10T14:33:27;36.92;;;16.77;;
72920;SDS011;61064;51.654;5.476;2023-02-10T14:35:58;41.00;;;18.85;;
72920;SDS011;61064;51.654;5.476;2023-02-10T14:38:27;39.92;;;18.02;;
72920;SDS011;61064;51.654;5.476;2023-02-10T14:40:54;42.47;;;19.70;;
72920;SDS011;61064;51.654;5.476;2023-02-10T14:43:27;40.50;;;18.17;;
72920;SDS011;61064;51.654;5.476;2023-02-10T14:45:54;39.60;;;18.60;;
72920;SDS011;61064;51.654;5.476;2023-02-10T14:48:22;39.50;;;18.48;;
72920;SDS011;61064;51.654;5.476;2023-02-10T14:50:56;36.55;;;18.20;;
72920;SDS011;61064;51.654;5.476;2023-02-10T14:53:29;38.60;;;17.55;;
72920;SDS011;61064;51.654;5.476;2023-02-10T14:55:56;35.20;;;17.00;;
72920;SDS011;61064;51.654;5.476;2023-02-10T14:58:23;37.70;;;17.23;;
72920;SDS011;61064;51.654;5.476;2023-02-10T15:01:13;36.30;;;16.73;;
72920;SDS011;61064;51.654;5.476;2023-02-10T15:03:47;37.83;;;15.33;;
72920;SDS011;61064;51.654;5.476;2023-02-10T15:06:17;37.45;;;16.50;;
72920;SDS011;61064;51.654;5.476;2023-02-10T15:11:43;34.10;;;15.55;;
72920;SDS011;61064;51.654;5.476;2023-02-10T15:14:33;33.75;;;16.25;;
72920;SDS011;61064;51.654;5.476;2023-02-10T15:17:07;37.93;;;16.80;;
72920;SDS011;61064;51.654;5.476;2023-02-10T15:19:48;38.20;;;17.52;;
72920;SDS011;61064;51.654;5.476;2023-02-10T15:30:40;42.40;;;18.07;;
72920;SDS011;61064;51.654;5.476;2023-02-10T15:33:23;43.10;;;18.88;;
72920;SDS011;61064;51.654;5.476;2023-02-10T15:35:55;39.22;;;18.50;;
72920;SDS011;61064;51.654;5.476;2023-02-10T15:38:41;44.40;;;18.92;;
72920;SDS011;61064;51.654;5.476;2023-02-10T15:41:15;40.50;;;17.95;;
72920;SDS011;61064;51.654;5.476;2023-02-10T15:44:04;43.97;;;18.33;;
72920;SDS011;61064;51.654;5.476;2023-02-10T15:46:42;39.65;;;16.95;;
72920;SDS011;61064;51.654;5.476;2023-02-10T15:49:08;39.25;;;16.98;;
72920;SDS011;61064;51.654;5.476;2023-02-10T15:51:41;45.47;;;17.00;;
72920;SDS011;61064;51.654;5.476;2023-02-10T15:54:20;38.10;;;16.03;;
72920;SDS011;61064;51.654;5.476;2023-02-10T15:59:21;35.88;;;14.98;;
72920;SDS011;61064;51.654;5.476;2023-02-10T16:01:52;35.20;;;15.73;;
72920;SDS011;61064;51.654;5.476;2023-02-10T16:04:18;37.87;;;16.60;;
72920;SDS011;61064;51.654;5.476;2023-02-10T16:06:43;37.90;;;15.40;;
72920;SDS011;61064;51.654;5.476;2023-02-10T16:09:09;33.50;;;15.53;;
72920;SDS011;61064;51.654;5.476;2023-02-10T16:11:35;36.13;;;15.52;;
72920;SDS011;61064;51.654;5.476;2023-02-10T16:14:01;34.43;;;14.90;;
72920;SDS011;61064;51.654;5.476;2023-02-10T16:16:26;36.90;;;14.83;;
72920;SDS011;61064;51.654;5.476;2023-02-10T16:18:52;37.72;;;15.57;;
72920;SDS011;61064;51.654;5.476;2023-02-10T16:21:17;36.03;;;15.57;;
72920;SDS011;61064;51.654;5.476;2023-02-10T16:23:43;36.10;;;15.37;;
72920;SDS011;61064;51.654;5.476;2023-02-10T16:26:09;37.22;;;15.18;;
72920;SDS011;61064;51.654;5.476;2023-02-10T16:28:47;36.07;;;14.57;;
72920;SDS011;61064;51.654;5.476;2023-02-10T16:31:13;35.25;;;14.98;;
72920;SDS011;61064;51.654;5.476;2023-02-10T16:33:38;35.10;;;14.20;;